createdAt,value
2022-11-03T00:00:13.017Z,100489.09
2022-11-03T00:00:45.231Z,100481.13
2022-11-03T00:01:17.104Z,100479.09
2022-11-03T00:01:51.132Z,100477.69
2022-11-03T00:02:23.327Z,100480.13
2022-11-03T00:02:55.263Z,100471.78
2022-11-03T00:03:27.751Z,100473.31
2022-11-03T00:03:59.612Z,100472.84
2022-11-03T00:04:31.475Z,100470.78
2022-11-03T00:05:23.332Z,100473.38
2022-11-03T00:06:07.569Z,100474.37
2022-11-03T00:06:40.936Z,100477.87
2022-11-03T00:07:13.046Z,100476.63
2022-11-03T00:07:44.907Z,100481.91
2022-11-03T00:08:16.753Z,100476.34
2022-11-03T00:08:48.581Z,100476.59
2022-11-03T00:09:21.654Z,100478.19
2022-11-03T00:09:53.559Z,100478.19
2022-11-03T00:10:25.386Z,100470.31
2022-11-03T00:11:07.529Z,100474.34
2022-11-03T00:11:41.929Z,100479.62
2022-11-03T00:12:13.927Z,100482.06
2022-11-03T00:12:45.757Z,100485.09
2022-11-03T00:13:17.621Z,100474.50
2022-11-03T00:13:49.465Z,100479.53
2022-11-03T00:14:21.401Z,100473.31
2022-11-03T00:14:53.323Z,100474.50
2022-11-03T00:15:25.297Z,100482.13
2022-11-03T00:15:57.447Z,100474.91
2022-11-03T00:16:29.539Z,100481.37
2022-11-03T00:17:01.405Z,100482.56
2022-11-03T00:17:33.682Z,100474.91
2022-11-03T00:18:05.494Z,100476.16
2022-11-03T00:18:37.728Z,100473.56
2022-11-03T00:19:10.910Z,100480.75
2022-11-03T00:19:42.726Z,100480.13
2022-11-03T00:20:14.742Z,100480.50
2022-11-03T00:20:56.266Z,100474.06
2022-11-03T00:21:29.134Z,100474.66
2022-11-03T00:22:01.003Z,100478.78
2022-11-03T00:22:33.673Z,100476.81
2022-11-03T00:23:05.725Z,100483.88
2022-11-03T00:23:40.151Z,100474.28
2022-11-03T00:24:12.732Z,100475.00
2022-11-03T00:24:44.578Z,100474.81
2022-11-03T00:25:16.486Z,100472.22
2022-11-03T00:25:48.317Z,100472.56
2022-11-03T00:26:28.194Z,100474.63
2022-11-03T00:27:00.386Z,100472.34
2022-11-03T00:27:32.311Z,100479.59
2022-11-03T00:28:04.352Z,100474.44
2022-11-03T00:28:37.321Z,100472.94
2022-11-03T00:29:14.181Z,100468.72
2022-11-03T00:29:46.007Z,100473.38
2022-11-03T00:30:17.917Z,100474.19
2022-11-03T00:30:49.731Z,100472.31
2022-11-03T00:31:29.915Z,100470.44
2022-11-03T00:32:02.078Z,100473.69
2022-11-03T00:32:33.906Z,100470.59
2022-11-03T00:33:06.000Z,100467.63
2022-11-03T00:33:38.774Z,100469.66
2022-11-03T00:34:11.400Z,100467.97
2022-11-03T00:34:43.255Z,100468.19
2022-11-03T00:35:15.125Z,100472.00
2022-11-03T00:35:46.960Z,100471.59
2022-11-03T00:36:24.042Z,100481.56
2022-11-03T00:36:55.919Z,100475.50
2022-11-03T00:37:28.062Z,100472.88
2022-11-03T00:37:59.895Z,100468.47
2022-11-03T00:38:32.461Z,100472.56
2022-11-03T00:39:05.825Z,100471.09
2022-11-03T00:39:37.679Z,100471.28
2022-11-03T00:40:11.180Z,100477.44
2022-11-03T00:41:21.052Z,100472.56
2022-11-03T00:42:11.139Z,100466.66
2022-11-03T00:42:43.580Z,100474.66
2022-11-03T00:43:15.395Z,100467.03
2022-11-03T00:43:48.694Z,100468.47
2022-11-03T00:44:20.517Z,100468.00
2022-11-03T00:44:52.343Z,100470.44
2022-11-03T00:45:24.159Z,100468.38
2022-11-03T00:45:56.404Z,100474.78
2022-11-03T00:46:28.870Z,100474.34
2022-11-03T00:47:00.717Z,100467.75
2022-11-03T00:47:32.560Z,100468.38
2022-11-03T00:48:23.222Z,100474.41
2022-11-03T00:48:55.077Z,100474.06
2022-11-03T00:49:26.920Z,100478.66
2022-11-03T00:49:58.738Z,100473.69
2022-11-03T00:50:33.100Z,100473.06
2022-11-03T00:51:04.863Z,100472.06
2022-11-03T00:51:36.782Z,100471.25
2022-11-03T00:52:08.631Z,100466.59
2022-11-03T00:52:40.476Z,100477.84
2022-11-03T00:53:12.565Z,100472.25
2022-11-03T00:53:45.898Z,100478.09
2022-11-03T00:54:17.806Z,100469.69
2022-11-03T00:54:54.284Z,100470.31
2022-11-03T00:55:27.306Z,100476.97
2022-11-03T00:55:59.521Z,100468.72
2022-11-03T00:56:37.251Z,100471.50
2022-11-03T00:57:09.087Z,100471.09
2022-11-03T00:57:40.956Z,100464.13
2022-11-03T00:58:13.080Z,100477.78
2022-11-03T01:01:46.990Z,100466.91
2022-11-03T01:02:19.401Z,100466.34
2022-11-03T01:02:51.334Z,100471.81
2022-11-03T01:03:23.518Z,100472.44
2022-11-03T01:04:15.793Z,100467.47
2022-11-03T01:05:06.134Z,100475.16
2022-11-03T01:06:03.717Z,100475.66
2022-11-03T01:06:50.629Z,100474.06
2022-11-03T01:07:22.569Z,100477.00
2022-11-03T01:07:54.717Z,100478.81
2022-11-03T01:08:35.635Z,100482.88
2022-11-03T01:09:07.569Z,100480.13
2022-11-03T01:09:41.154Z,100477.53
2022-11-03T01:10:13.054Z,100480.59
2022-11-03T01:11:04.847Z,100483.38
2022-11-03T01:11:45.711Z,100475.25
2022-11-03T01:12:19.230Z,100473.97
2022-11-03T01:12:51.115Z,100467.94
2022-11-03T01:13:22.926Z,100473.31
2022-11-03T01:13:55.857Z,100475.78
2022-11-03T01:14:34.162Z,100473.63
2022-11-03T01:15:06.399Z,100472.75
2022-11-03T01:15:38.214Z,100478.88
2022-11-03T01:16:10.303Z,100479.97
2022-11-03T01:16:42.763Z,100480.03
2022-11-03T01:17:17.674Z,100478.31
2022-11-03T01:17:49.490Z,100476.41
2022-11-03T01:18:21.312Z,100478.41
2022-11-03T01:18:53.415Z,100478.78
2022-11-03T01:19:25.836Z,100472.72
2022-11-03T01:19:57.694Z,100471.66
2022-11-03T01:20:29.531Z,100472.56
2022-11-03T01:21:01.382Z,100470.00
2022-11-03T01:21:33.984Z,100469.34
2022-11-03T01:22:09.615Z,100469.81
2022-11-03T01:22:42.778Z,100467.75
2022-11-03T01:23:14.643Z,100471.63
2022-11-03T01:23:46.854Z,100474.03
2022-11-03T01:24:18.762Z,100467.13
2022-11-03T01:24:54.015Z,100472.06
2022-11-03T01:25:26.476Z,100480.63
2022-11-03T01:26:03.520Z,100477.56
2022-11-03T01:26:35.356Z,100477.00
2022-11-03T01:27:13.152Z,100469.19
2022-11-03T01:27:45.072Z,100483.03
2022-11-03T01:28:17.064Z,100476.31
2022-11-03T01:28:49.110Z,100483.50
2022-11-03T01:29:20.998Z,100485.91
2022-11-03T01:29:53.134Z,100485.91
2022-11-03T01:30:24.980Z,100477.13
2022-11-03T01:30:56.830Z,100479.53
2022-11-03T01:31:28.849Z,100477.37
2022-11-03T01:32:00.673Z,100469.03
2022-11-03T01:32:32.541Z,100476.75
2022-11-03T01:33:04.569Z,100479.72
2022-11-03T01:33:36.571Z,100479.19
2022-11-03T01:34:14.722Z,100472.88
2022-11-03T01:34:46.557Z,100472.00
2022-11-03T01:35:18.709Z,100477.75
2022-11-03T01:35:53.645Z,100471.81
2022-11-03T01:36:25.989Z,100475.75
2022-11-03T01:36:57.942Z,100476.09
2022-11-03T01:37:29.781Z,100473.81
2022-11-03T01:38:01.630Z,100470.87
2022-11-03T01:38:35.411Z,100468.13
2022-11-03T01:39:07.268Z,100484.41
2022-11-03T01:39:39.103Z,100478.72
2022-11-03T01:40:11.531Z,100477.91
2022-11-03T01:40:44.079Z,100479.56
2022-11-03T01:41:21.754Z,100483.03
2022-11-03T01:41:53.884Z,100477.53
2022-11-03T01:42:25.741Z,100476.94
2022-11-03T01:43:15.111Z,100479.72
2022-11-03T01:44:09.854Z,100485.72
2022-11-03T01:44:46.660Z,100480.25
2022-11-03T01:45:18.500Z,100485.19
2022-11-03T01:45:57.649Z,100482.31
2022-11-03T01:46:29.764Z,100479.88
2022-11-03T01:47:04.730Z,100477.28
2022-11-03T01:47:37.146Z,100472.88
2022-11-03T01:48:11.465Z,100475.59
2022-11-03T01:49:05.136Z,100482.44
2022-11-03T01:49:46.767Z,100474.78
2022-11-03T01:50:20.380Z,100468.19
2022-11-03T01:50:52.993Z,100471.63
2022-11-03T01:51:29.166Z,100474.94
2022-11-03T01:52:07.873Z,100472.00
2022-11-03T01:53:06.476Z,100471.91
2022-11-03T01:53:44.188Z,100474.59
2022-11-03T01:54:21.521Z,100468.41
2022-11-03T01:54:59.542Z,100469.72
2022-11-03T01:55:36.908Z,100475.75
2022-11-03T01:56:11.189Z,100467.84
2022-11-03T01:56:48.133Z,100468.84
2022-11-03T01:57:25.590Z,100467.03
2022-11-03T01:58:03.291Z,100464.63
2022-11-03T01:58:38.166Z,100466.22
2022-11-03T01:59:10.865Z,100470.63
2022-11-03T01:59:44.252Z,100475.13
2022-11-03T02:00:16.383Z,100471.44
2022-11-03T02:00:52.597Z,100471.16
2022-11-03T02:01:24.833Z,100465.31
2022-11-03T02:01:56.965Z,100472.44
2022-11-03T02:02:29.101Z,100472.00
2022-11-03T02:03:01.591Z,100471.19
2022-11-03T02:03:40.741Z,100466.44
2022-11-03T02:04:33.117Z,100471.37
2022-11-03T02:05:06.446Z,100470.56
2022-11-03T02:05:40.539Z,100467.75
2022-11-03T02:06:13.152Z,100472.72
2022-11-03T02:06:45.864Z,100475.78
2022-11-03T02:07:26.867Z,100479.88
2022-11-03T02:08:10.125Z,100470.38
2022-11-03T02:08:49.340Z,100464.06
2022-11-03T02:09:21.222Z,100467.13
2022-11-03T02:09:53.123Z,100464.72
2022-11-03T02:10:25.739Z,100461.91
2022-11-03T02:10:58.413Z,100459.56
2022-11-03T02:11:50.900Z,100458.28
2022-11-03T02:12:23.293Z,100456.75
2022-11-03T02:12:55.292Z,100468.16
2022-11-03T02:13:28.111Z,100457.56
2022-11-03T02:14:00.579Z,100462.84
2022-11-03T02:14:32.485Z,100458.53
2022-11-03T02:15:13.496Z,100461.63
2022-11-03T02:15:50.182Z,100464.50
2022-11-03T02:16:25.221Z,100459.62
2022-11-03T02:17:02.283Z,100458.53
2022-11-03T02:17:35.828Z,100462.69
2022-11-03T02:18:09.729Z,100463.63
2022-11-03T02:18:42.907Z,100465.91
2022-11-03T02:19:36.202Z,100466.75
2022-11-03T02:20:18.906Z,100460.16
2022-11-03T02:21:02.518Z,100463.56
2022-11-03T02:22:02.850Z,100459.50
2022-11-03T02:22:53.099Z,100455.69
2022-11-03T02:24:09.843Z,100450.22
2022-11-03T02:24:53.830Z,100463.63
2022-11-03T02:25:52.802Z,100450.47
2022-11-03T02:26:25.199Z,100445.53
2022-11-03T02:26:57.342Z,100454.09
2022-11-03T02:27:29.432Z,100448.88
2022-11-03T02:28:02.946Z,100451.75
2022-11-03T02:28:34.790Z,100450.75
2022-11-03T02:29:06.671Z,100448.59
2022-11-03T02:29:38.727Z,100456.44
2022-11-03T02:30:11.619Z,100445.69
2022-11-03T02:31:06.246Z,100450.63
2022-11-03T02:31:50.760Z,100453.03
2022-11-03T02:32:28.289Z,100446.75
2022-11-03T02:33:22.787Z,100450.50
2022-11-03T02:34:10.470Z,100451.97
2022-11-03T02:34:50.229Z,100456.63
2022-11-03T02:35:22.385Z,100454.66
2022-11-03T02:36:02.575Z,100453.31
2022-11-03T02:36:43.616Z,100451.97
2022-11-03T02:37:21.060Z,100449.06
2022-11-03T02:37:57.740Z,100449.78
2022-11-03T02:38:32.286Z,100458.16
2022-11-03T02:39:14.983Z,100453.59
2022-11-03T02:39:53.134Z,100451.25
2022-11-03T02:40:33.301Z,100452.38
2022-11-03T02:41:08.191Z,100454.97
2022-11-03T02:41:40.808Z,100453.94
2022-11-03T02:42:15.540Z,100456.63
2022-11-03T02:42:51.864Z,100453.72
2022-11-03T02:43:25.896Z,100454.97
2022-11-03T02:43:58.560Z,100455.69
2022-11-03T02:44:33.615Z,100451.63
2022-11-03T02:45:11.908Z,100455.03
2022-11-03T02:45:50.599Z,100449.84
2022-11-03T02:46:25.818Z,100449.19
2022-11-03T02:47:01.550Z,100449.47
2022-11-03T02:47:36.000Z,100447.41
2022-11-03T02:48:08.868Z,100454.91
2022-11-03T02:48:40.707Z,100447.41
2022-11-03T02:49:12.545Z,100455.84
2022-11-03T02:49:53.474Z,100447.53
2022-11-03T02:50:30.262Z,100457.25
2022-11-03T02:51:03.804Z,100456.81
2022-11-03T02:51:35.622Z,100459.25
2022-11-03T02:52:27.557Z,100456.12
2022-11-03T02:53:00.235Z,100461.63
2022-11-03T02:53:38.343Z,100463.44
2022-11-03T02:54:28.078Z,100461.47
2022-11-03T02:55:07.328Z,100466.06
2022-11-03T02:55:58.264Z,100457.75
2022-11-03T02:56:31.131Z,100458.38
2022-11-03T02:57:11.797Z,100457.03
2022-11-03T02:57:51.045Z,100461.53
2022-11-03T02:58:37.966Z,100461.16
2022-11-03T02:59:15.074Z,100459.19
2022-11-03T02:59:57.185Z,100458.97
2022-11-03T03:00:31.535Z,100457.34
2022-11-03T03:01:27.309Z,100461.13
2022-11-03T03:02:24.192Z,100458.50
2022-11-03T03:03:00.601Z,100461.31
2022-11-03T03:03:40.526Z,100459.59
2022-11-03T03:04:27.059Z,100456.81
2022-11-03T03:05:02.239Z,100459.41
2022-11-03T03:05:37.449Z,100459.31
2022-11-03T03:06:15.463Z,100452.03
2022-11-03T03:06:56.878Z,100458.88
2022-11-03T03:07:32.755Z,100456.28
2022-11-03T03:08:07.927Z,100457.87
2022-11-03T03:08:44.472Z,100459.78
2022-11-03T03:09:21.644Z,100458.50
2022-11-03T03:09:57.457Z,100451.69
2022-11-03T03:10:37.716Z,100451.69
2022-11-03T03:11:12.558Z,100450.97
2022-11-03T03:11:47.631Z,100458.25
2022-11-03T03:12:21.774Z,100444.16
2022-11-03T03:12:57.893Z,100452.41
2022-11-03T03:13:29.763Z,100447.94
2022-11-03T03:14:01.604Z,100454.91
2022-11-03T03:14:41.894Z,100455.00
2022-11-03T03:15:16.622Z,100458.25
2022-11-03T03:16:01.478Z,100454.47
2022-11-03T03:16:39.756Z,100456.06
2022-11-03T03:17:15.621Z,100456.16
2022-11-03T03:17:55.290Z,100447.66
2022-11-03T03:18:46.757Z,100452.38
2022-11-03T03:19:24.384Z,100453.00
2022-11-03T03:19:56.150Z,100450.84
2022-11-03T03:20:41.807Z,100451.50
2022-11-03T03:21:23.951Z,100452.28
2022-11-03T03:22:00.090Z,100452.41
2022-11-03T03:22:43.572Z,100453.94
2022-11-03T03:23:20.621Z,100449.53
2022-11-03T03:23:58.955Z,100452.88
2022-11-03T03:24:43.035Z,100459.41
2022-11-03T03:25:20.609Z,100454.56
2022-11-03T03:25:59.313Z,100455.53
2022-11-03T03:26:34.034Z,100457.19
2022-11-03T03:27:11.117Z,100458.16
2022-11-03T03:27:47.491Z,100458.16
2022-11-03T03:28:43.926Z,100459.78
2022-11-03T03:29:23.367Z,100459.25
2022-11-03T03:30:01.286Z,100460.16
2022-11-03T03:30:35.365Z,100454.94
2022-11-03T03:31:11.493Z,100458.94
2022-11-03T03:31:48.499Z,100454.53
2022-11-03T03:32:23.704Z,100459.56
2022-11-03T03:32:56.940Z,100458.88
2022-11-03T03:33:31.309Z,100465.62
2022-11-03T03:34:16.601Z,100454.34
2022-11-03T03:34:59.371Z,100458.94
2022-11-03T03:35:33.340Z,100462.22
2022-11-03T03:36:09.667Z,100470.69
2022-11-03T03:36:44.615Z,100460.81
2022-11-03T03:37:17.862Z,100459.72
2022-11-03T03:37:53.326Z,100467.44
2022-11-03T03:38:30.888Z,100460.00
2022-11-03T03:39:06.265Z,100466.88
2022-11-03T03:39:41.036Z,100472.44
2022-11-03T03:40:20.584Z,100472.25
2022-11-03T03:40:55.903Z,100470.44
2022-11-03T03:41:29.517Z,100469.84
2022-11-03T03:42:03.486Z,100470.00
2022-11-03T03:42:37.219Z,100474.41
2022-11-03T03:43:11.930Z,100469.72
2022-11-03T03:43:44.032Z,100469.72
2022-11-03T03:44:17.538Z,100467.87
2022-11-03T03:44:50.918Z,100466.59
2022-11-03T03:45:26.065Z,100465.06
2022-11-03T03:46:04.106Z,100467.47
2022-11-03T03:46:42.227Z,100467.03
2022-11-03T03:47:23.256Z,100470.59
2022-11-03T03:48:05.736Z,100469.62
2022-11-03T03:48:37.715Z,100466.41
2022-11-03T03:49:09.610Z,100456.00
2022-11-03T03:49:41.510Z,100465.69
2022-11-03T03:50:13.542Z,100462.72
2022-11-03T03:50:48.685Z,100465.69
2022-11-03T03:51:24.128Z,100461.63
2022-11-03T03:51:56.428Z,100458.38
2022-11-03T03:52:29.494Z,100466.53
2022-11-03T03:53:03.063Z,100460.63
2022-11-03T03:53:34.889Z,100458.84
2022-11-03T03:54:06.777Z,100460.41
2022-11-03T03:54:38.609Z,100452.47
2022-11-03T03:55:17.694Z,100457.22
2022-11-03T03:55:52.113Z,100454.44
2022-11-03T03:57:03.653Z,100448.06
2022-11-03T03:57:35.464Z,100452.91
2022-11-03T03:58:10.618Z,100455.84
2022-11-03T03:58:42.421Z,100459.78
2022-11-03T03:59:14.530Z,100457.56
2022-11-03T03:59:46.844Z,100455.16
2022-11-03T04:00:19.440Z,100451.91
2022-11-03T04:00:51.667Z,100451.56
2022-11-03T04:01:23.761Z,100452.94
2022-11-03T04:01:55.743Z,100456.94
2022-11-03T04:02:27.784Z,100447.69
2022-11-03T04:03:00.086Z,100452.31
2022-11-03T04:03:31.992Z,100451.31
2022-11-03T04:04:04.019Z,100448.91
2022-11-03T04:04:35.893Z,100449.59
2022-11-03T04:05:08.272Z,100453.00
2022-11-03T04:05:40.153Z,100455.28
2022-11-03T04:06:12.345Z,100457.00
2022-11-03T04:06:44.209Z,100450.34
2022-11-03T04:07:39.325Z,100451.34
2022-11-03T04:08:16.791Z,100455.50
2022-11-03T04:08:48.842Z,100448.09
2022-11-03T04:09:20.686Z,100445.12
2022-11-03T04:09:52.511Z,100447.47
2022-11-03T04:10:25.149Z,100448.22
2022-11-03T04:11:15.580Z,100447.34
2022-11-03T04:12:06.394Z,100451.09
2022-11-03T04:12:59.709Z,100445.72
2022-11-03T04:13:51.124Z,100451.56
2022-11-03T04:14:41.461Z,100448.53
2022-11-03T04:15:32.370Z,100442.97
2022-11-03T04:16:22.876Z,100454.66
2022-11-03T04:17:13.719Z,100458.84
2022-11-03T04:18:06.421Z,100449.47
2022-11-03T04:18:57.471Z,100454.31
2022-11-03T04:19:47.846Z,100445.41
2022-11-03T04:20:45.629Z,100448.59
2022-11-03T04:21:36.217Z,100449.84
2022-11-03T04:22:17.583Z,100449.22
2022-11-03T04:22:49.437Z,100447.06
2022-11-03T04:23:21.310Z,100434.22
2022-11-03T04:23:53.138Z,100445.91
2022-11-03T04:24:25.512Z,100443.47
2022-11-03T04:24:58.768Z,100441.06
2022-11-03T04:25:30.593Z,100439.34
2022-11-03T04:26:02.480Z,100446.84
2022-11-03T04:26:34.335Z,100436.44
2022-11-03T04:27:30.790Z,100444.06
2022-11-03T04:28:12.004Z,100435.34
2022-11-03T04:28:44.131Z,100429.78
2022-11-03T04:29:15.960Z,100440.22
2022-11-03T04:29:47.901Z,100437.94
2022-11-03T04:30:21.265Z,100440.56
2022-11-03T04:30:58.847Z,100440.22
2022-11-03T04:31:35.570Z,100437.41
2022-11-03T04:32:15.346Z,100437.31
2022-11-03T04:32:49.166Z,100437.13
2022-11-03T04:33:22.096Z,100434.41
2022-11-03T04:33:54.009Z,100435.69
2022-11-03T04:34:25.858Z,100435.47
2022-11-03T04:34:59.073Z,100443.38
2022-11-03T04:35:30.906Z,100439.78
2022-11-03T04:36:17.200Z,100437.25
2022-11-03T04:36:49.224Z,100441.13
2022-11-03T04:37:21.400Z,100442.19
2022-11-03T04:38:09.755Z,100450.00
2022-11-03T04:38:43.796Z,100438.56
2022-11-03T04:39:21.475Z,100445.03
2022-11-03T04:40:01.456Z,100438.94
2022-11-03T04:40:33.496Z,100449.59
2022-11-03T04:41:37.931Z,100442.47
2022-11-03T04:42:21.566Z,100441.22
2022-11-03T04:42:53.921Z,100446.78
2022-11-03T04:43:34.054Z,100444.81
2022-11-03T04:44:14.339Z,100452.53
2022-11-03T04:44:47.165Z,100448.50
2022-11-03T04:45:32.609Z,100453.97
2022-11-03T04:46:05.529Z,100453.66
2022-11-03T04:46:37.334Z,100452.00
2022-11-03T04:47:12.294Z,100458.47
2022-11-03T04:47:44.159Z,100455.16
2022-11-03T04:48:18.110Z,100458.75
2022-11-03T04:48:50.850Z,100459.31
2022-11-03T04:49:23.539Z,100458.25
2022-11-03T04:49:55.718Z,100460.06
2022-11-03T04:50:27.866Z,100454.47
2022-11-03T04:51:02.630Z,100465.78
2022-11-03T04:51:35.005Z,100453.56
2022-11-03T04:52:17.529Z,100461.16
2022-11-03T04:52:55.135Z,100455.16
2022-11-03T04:53:32.283Z,100468.50
2022-11-03T04:54:13.372Z,100465.91
2022-11-03T04:54:47.349Z,100456.12
2022-11-03T04:55:20.496Z,100456.06
2022-11-03T04:55:54.044Z,100459.56
2022-11-03T04:56:26.033Z,100460.47
2022-11-03T04:56:57.856Z,100451.50
2022-11-03T04:57:29.681Z,100455.16
2022-11-03T04:58:11.031Z,100451.28
2022-11-03T04:58:43.069Z,100457.37
2022-11-03T04:59:16.844Z,100460.19
2022-11-03T04:59:52.623Z,100456.59
2022-11-03T05:00:25.067Z,100465.19
2022-11-03T05:00:58.659Z,100470.03
2022-11-03T05:01:31.918Z,100473.00
2022-11-03T05:02:51.557Z,100469.88
2022-11-03T05:03:36.054Z,100474.72
2022-11-03T05:04:18.306Z,100471.59
2022-11-03T05:04:50.477Z,100475.78
2022-11-03T05:05:25.080Z,100470.16
2022-11-03T05:05:57.620Z,100470.87
2022-11-03T05:06:30.211Z,100474.25
2022-11-03T05:07:02.025Z,100481.97
2022-11-03T05:07:36.237Z,100475.69
2022-11-03T05:08:09.415Z,100477.28
2022-11-03T05:08:42.750Z,100464.34
2022-11-03T05:09:18.156Z,100470.19
2022-11-03T05:09:51.296Z,100473.78
2022-11-03T05:10:29.744Z,100469.38
2022-11-03T05:11:05.523Z,100467.59
2022-11-03T05:11:43.960Z,100471.69
2022-11-03T05:12:16.948Z,100471.44
2022-11-03T05:12:49.257Z,100470.63
2022-11-03T05:13:29.068Z,100479.19
2022-11-03T05:14:04.546Z,100475.19
2022-11-03T05:14:37.696Z,100472.06
2022-11-03T05:15:27.436Z,100474.56
2022-11-03T05:16:03.797Z,100481.03
2022-11-03T05:16:35.839Z,100469.53
2022-11-03T05:17:26.101Z,100474.63
2022-11-03T05:18:00.284Z,100473.91
2022-11-03T05:18:37.013Z,100475.31
2022-11-03T05:19:37.787Z,100471.53
2022-11-03T05:20:34.666Z,100470.63
2022-11-03T05:21:15.000Z,100474.13
2022-11-03T05:21:50.175Z,100473.75
2022-11-03T05:22:24.833Z,100478.34
2022-11-03T05:22:56.885Z,100482.88
2022-11-03T05:23:36.546Z,100483.12
2022-11-03T05:24:46.971Z,100487.34
2022-11-03T05:25:42.153Z,100486.22
2022-11-03T05:26:22.593Z,100486.56
2022-11-03T05:26:57.468Z,100487.31
2022-11-03T05:27:29.498Z,100492.06
2022-11-03T05:28:01.590Z,100493.91
2022-11-03T05:28:39.481Z,100494.09
2022-11-03T05:29:11.288Z,100494.03
2022-11-03T05:29:43.455Z,100493.41
2022-11-03T05:30:15.584Z,100485.66
2022-11-03T05:30:49.191Z,100489.06
2022-11-03T05:31:22.670Z,100490.06
2022-11-03T05:31:56.233Z,100490.69
2022-11-03T05:32:34.280Z,100489.44
2022-11-03T05:33:19.678Z,100495.59
2022-11-03T05:33:58.898Z,100494.75
2022-11-03T05:34:30.703Z,100491.81
2022-11-03T05:35:04.213Z,100499.00
2022-11-03T05:35:36.061Z,100497.34
2022-11-03T05:36:21.679Z,100493.16
2022-11-03T05:36:53.689Z,100496.38
2022-11-03T05:37:29.630Z,100497.81
2022-11-03T05:38:03.684Z,100501.13
2022-11-03T05:38:35.858Z,100497.72
2022-11-03T05:39:33.754Z,100493.16
2022-11-03T05:40:22.361Z,100490.94
2022-11-03T05:40:54.408Z,100487.25
2022-11-03T05:41:30.593Z,100491.22
2022-11-03T05:42:06.519Z,100489.94
2022-11-03T05:42:41.811Z,100493.56
2022-11-03T05:43:15.383Z,100489.50
2022-11-03T05:43:56.007Z,100490.47
2022-11-03T05:44:39.770Z,100495.25
2022-11-03T05:45:26.151Z,100496.16
2022-11-03T05:46:01.630Z,100495.88
2022-11-03T05:46:35.256Z,100495.63
2022-11-03T05:47:18.788Z,100494.34
2022-11-03T05:47:54.225Z,100497.97
2022-11-03T05:48:39.181Z,100492.81
2022-11-03T05:49:11.102Z,100498.03
2022-11-03T05:49:43.004Z,100497.75
2022-11-03T05:50:25.246Z,100499.13
2022-11-03T05:51:13.212Z,100498.22
2022-11-03T05:51:46.636Z,100496.59
2022-11-03T05:52:24.388Z,100500.63
2022-11-03T05:53:15.043Z,100498.16
2022-11-03T05:53:51.094Z,100497.69
2022-11-03T05:54:26.256Z,100502.13
2022-11-03T05:55:00.150Z,100507.22
2022-11-03T05:55:35.842Z,100499.13
2022-11-03T05:56:11.918Z,100502.13
2022-11-03T05:56:43.794Z,100505.00
2022-11-03T05:57:17.511Z,100509.13
2022-11-03T05:57:49.561Z,100502.53
2022-11-03T05:58:26.870Z,100507.25
2022-11-03T05:59:00.797Z,100503.22
2022-11-03T05:59:32.727Z,100499.53
2022-11-03T06:00:05.088Z,100504.59
2022-11-03T06:00:48.314Z,100498.44
2022-11-03T06:01:29.116Z,100506.06
2022-11-03T06:02:01.401Z,100507.25
2022-11-03T06:02:40.287Z,100505.31
2022-11-03T06:03:28.446Z,100504.13
2022-11-03T06:04:19.649Z,100498.13
2022-11-03T06:04:51.343Z,100516.62
2022-11-03T06:05:24.717Z,100507.81
2022-11-03T06:05:58.584Z,100505.78
2022-11-03T06:06:36.379Z,100495.69
2022-11-03T06:07:30.197Z,100515.94
2022-11-03T06:08:11.785Z,100512.69
2022-11-03T06:08:46.048Z,100517.09
2022-11-03T06:09:22.661Z,100515.47
2022-11-03T06:09:54.740Z,100508.44
2022-11-03T06:10:29.645Z,100513.66
2022-11-03T06:11:03.407Z,100514.81
2022-11-03T06:11:37.313Z,100510.63
2022-11-03T06:12:15.453Z,100512.31
2022-11-03T06:12:47.361Z,100519.50
2022-11-03T06:13:39.905Z,100510.88
2022-11-03T06:14:24.718Z,100512.22
2022-11-03T06:14:56.811Z,100512.59
2022-11-03T06:15:34.783Z,100519.78
2022-11-03T06:16:27.877Z,100513.12
2022-11-03T06:17:06.049Z,100508.28
2022-11-03T06:17:38.179Z,100513.12
2022-11-03T06:18:32.568Z,100507.25
2022-11-03T06:19:21.834Z,100509.06
2022-11-03T06:19:59.474Z,100509.06
2022-11-03T06:20:31.311Z,100502.50
2022-11-03T06:21:17.528Z,100515.75
2022-11-03T06:21:51.732Z,100520.91
2022-11-03T06:22:31.354Z,100509.19
2022-11-03T06:23:03.312Z,100514.94
2022-11-03T06:23:37.814Z,100511.72
2022-11-03T06:24:14.135Z,100509.72
2022-11-03T06:24:46.106Z,100510.69
2022-11-03T06:25:35.159Z,100515.50
2022-11-03T06:26:16.625Z,100518.06
2022-11-03T06:26:49.868Z,100523.81
2022-11-03T06:27:28.306Z,100518.25
2022-11-03T06:28:03.479Z,100525.19
2022-11-03T06:28:37.834Z,100522.91
2022-11-03T06:29:15.488Z,100527.03
2022-11-03T06:29:52.215Z,100522.59
2022-11-03T06:30:29.381Z,100528.91
2022-11-03T06:31:01.294Z,100523.50
2022-11-03T06:31:34.198Z,100530.31
2022-11-03T06:32:12.761Z,100527.41
2022-11-03T06:32:44.746Z,100533.88
2022-11-03T06:33:25.712Z,100521.38
2022-11-03T06:33:57.878Z,100525.28
2022-11-03T06:34:45.342Z,100520.94
2022-11-03T06:35:18.396Z,100523.09
2022-11-03T06:35:53.963Z,100527.25
2022-11-03T06:36:35.559Z,100524.13
2022-11-03T06:37:27.505Z,100523.91
2022-11-03T06:38:00.163Z,100527.69
2022-11-03T06:38:35.390Z,100522.00
2022-11-03T06:39:23.387Z,100525.94
2022-11-03T06:40:00.245Z,100523.91
2022-11-03T06:40:36.728Z,100528.75
2022-11-03T06:41:26.652Z,100521.13
2022-11-03T06:41:58.526Z,100520.56
2022-11-03T06:42:33.368Z,100526.56
2022-11-03T06:43:19.264Z,100526.38
2022-11-03T06:43:52.445Z,100523.88
2022-11-03T06:44:26.752Z,100534.78
2022-11-03T06:44:58.654Z,100535.53
2022-11-03T06:45:30.546Z,100530.38
2022-11-03T06:46:12.721Z,100531.09
2022-11-03T06:46:44.574Z,100538.22
2022-11-03T06:47:23.575Z,100537.00
2022-11-03T06:47:55.665Z,100541.13
2022-11-03T06:49:27.429Z,100539.81
2022-11-03T06:50:00.814Z,100539.41
2022-11-03T06:50:33.200Z,100542.63
2022-11-03T06:51:16.374Z,100543.62
2022-11-03T06:51:48.269Z,100544.03
2022-11-03T06:53:29.480Z,100544.03
2022-11-03T06:54:01.917Z,100532.03
2022-11-03T06:54:34.052Z,100532.97
2022-11-03T06:55:22.387Z,100532.97
2022-11-03T06:55:54.712Z,100533.59
2022-11-03T06:56:31.623Z,100531.34
2022-11-03T06:57:10.734Z,100530.34
2022-11-03T06:57:46.026Z,100534.81
2022-11-03T06:58:28.450Z,100528.81
2022-11-03T06:59:00.958Z,100528.22
2022-11-03T06:59:32.810Z,100535.50
2022-11-03T07:00:32.873Z,100527.22
2022-11-03T07:01:31.476Z,100529.69
2022-11-03T07:02:03.556Z,100532.72
2022-11-03T07:03:08.152Z,100528.31
2022-11-03T07:03:40.974Z,100529.09
2022-11-03T07:04:18.792Z,100531.13
2022-11-03T07:04:50.635Z,100533.16
2022-11-03T07:05:25.702Z,100536.78
2022-11-03T07:06:01.913Z,100535.37
2022-11-03T07:06:36.848Z,100528.34